Time;durP1;ratioP1;P1;durP2;ratioP2;P2;SDS_P1;SDS_P2;PMS_P1;PMS_P2;Temp;Humidity;BMP_temperature;BMP_pressure;BME280_temperature;BME280_humidity;BME280_pressure;Samples;Min_cycle;Max_cycle;Signal;HPM_P1;HPM_P2
2021/11/29 00:04:48;;;;;;;16.90;5.50;;;;;;;0.25;96.42;96552.34;215007;1320;22711;-75
2021/11/29 00:09:51;;;;;;;24.20;6.70;;;;;;;0.26;96.24;96554.27;215143;1316;22739;-75
2021/11/29 00:15:01;;;;;;;20.90;7.10;;;;;;;0.26;96.35;96561.87;214969;1321;22540;-75
2021/11/29 00:20:06;;;;;;;16.30;6.30;;;;;;;0.24;96.12;96568.14;214775;1321;22610;-75
2021/11/29 00:25:08;;;;;;;17.00;6.20;;;;;;;0.20;96.09;96562.21;215177;1316;22513;-77
2021/11/29 00:30:13;;;;;;;14.60;5.90;;;;;;;0.17;96.05;96564.92;215015;1316;25246;-76
2021/11/29 00:35:22;;;;;;;19.80;6.10;;;;;;;0.15;96.21;96557.90;215116;1321;22742;-76
2021/11/29 00:40:24;;;;;;;20.30;6.00;;;;;;;0.13;96.33;96556.11;214900;1314;25034;-76
2021/11/29 00:45:30;;;;;;;19.90;7.10;;;;;;;0.14;96.45;96551.05;215106;1316;22582;-76
2021/11/29 00:50:43;;;;;;;22.20;6.70;;;;;;;0.13;96.38;96562.27;214735;1320;25534;-76
2021/11/29 00:55:51;;;;;;;15.10;6.30;;;;;;;0.13;96.44;96571.85;215164;1320;24365;-76
2021/11/29 01:01:04;;;;;;;15.70;5.30;;;;;;;0.13;96.37;96571.85;214899;1318;24365;-76
2021/11/29 01:06:08;;;;;;;20.00;5.90;;;;;;;0.14;96.30;96569.52;215212;1315;22519;-76
2021/11/29 01:11:11;;;;;;;13.00;5.70;;;;;;;0.11;96.47;96572.39;215101;1321;25446;-76
2021/11/29 01:16:13;;;;;;;18.30;5.90;;;;;;;0.07;96.42;96564.84;215078;1316;22752;-76
2021/11/29 01:21:17;;;;;;;18.50;6.50;;;;;;;0.07;96.29;96568.37;214924;1316;22583;-77
2021/11/29 01:26:24;;;;;;;15.60;5.60;;;;;;;0.09;96.67;96568.25;215129;1320;24249;-77
2021/11/29 01:31:27;;;;;;;14.70;5.90;;;;;;;0.09;96.63;96566.04;214971;1320;22629;-76
2021/11/29 01:36:59;;;;;;;14.40;5.80;;;;;;;0.11;96.45;96568.34;215690;1320;22545;-76
2021/11/29 01:42:02;;;;;;;15.50;5.60;;;;;;;0.12;96.46;96570.28;215773;1320;22542;-76
2021/11/29 01:47:05;;;;;;;17.60;6.30;;;;;;;0.15;96.57;96578.95;215687;1321;24384;-76
2021/11/29 01:52:07;;;;;;;17.20;5.60;;;;;;;0.19;96.59;96574.28;214992;1322;22769;-76
2021/11/29 01:57:23;;;;;;;12.70;5.00;;;;;;;0.20;96.47;96572.38;214605;1318;23185;-76
2021/11/29 02:02:36;;;;;;;11.50;4.80;;;;;;;0.20;96.26;96577.70;215106;1317;23829;-76
2021/11/29 02:07:53;;;;;;;11.30;6.00;;;;;;;0.20;96.45;96583.08;215052;1319;23432;-76
2021/11/29 02:13:01;;;;;;;16.80;5.90;;;;;;;0.25;96.70;96586.15;215224;1322;22851;-76
2021/11/29 02:18:30;;;;;;;11.50;4.70;;;;;;;0.27;96.59;96588.44;214957;1319;22506;-76
2021/11/29 02:23:37;;;;;;;14.80;5.10;;;;;;;0.28;96.65;96586.87;214811;1317;23880;-76
2021/11/29 02:28:47;;;;;;;9.70;4.30;;;;;;;0.26;96.09;96586.62;215079;1320;25856;-77
2021/11/29 02:33:56;;;;;;;12.00;5.30;;;;;;;0.25;96.13;96587.67;215059;1317;22655;-77
2021/11/29 02:38:59;;;;;;;15.50;5.90;;;;;;;0.26;96.41;96590.94;215051;1320;25847;-76
2021/11/29 02:44:15;;;;;;;18.60;5.20;;;;;;;0.25;96.39;96594.20;214863;1320;23169;-76
2021/11/29 02:49:18;;;;;;;15.60;5.40;;;;;;;0.23;96.21;96590.85;214942;1322;24158;-76
2021/11/29 02:54:24;;;;;;;18.40;5.50;;;;;;;0.22;95.90;96591.85;215066;1317;22567;-76
2021/11/29 02:59:30;;;;;;;13.80;5.50;;;;;;;0.20;96.19;96604.25;214922;1315;23037;-76
2021/11/29 03:04:34;;;;;;;20.50;6.50;;;;;;;0.20;96.57;96606.73;215002;1320;24308;-76
2021/11/29 03:09:37;;;;;;;21.50;7.30;;;;;;;0.19;96.45;96607.04;214783;1322;24276;-77
2021/11/29 03:14:50;;;;;;;21.40;7.30;;;;;;;0.17;96.39;96593.00;214864;1321;23811;-77
2021/11/29 03:19:52;;;;;;;14.80;6.20;;;;;;;0.17;96.29;96598.79;215299;1322;23262;-76
2021/11/29 03:24:54;;;;;;;16.90;6.30;;;;;;;0.13;96.25;96600.34;215620;1315;23402;-76
2021/11/29 03:29:57;;;;;;;25.70;8.40;;;;;;;0.13;96.62;96610.83;215483;1319;22582;-76
2021/11/29 03:34:59;;;;;;;24.90;6.60;;;;;;;0.18;96.75;96608.33;214921;1323;24213;-76
2021/11/29 03:40:02;;;;;;;16.80;6.30;;;;;;;0.16;96.61;96611.92;214739;1321;25815;-76
2021/11/29 03:45:05;;;;;;;14.80;6.30;;;;;;;0.15;96.50;96608.02;214874;1322;22808;-76
2021/11/29 03:50:07;;;;;;;23.00;6.70;;;;;;;0.10;96.47;96603.16;214814;1322;22992;-76
2021/11/29 03:55:10;;;;;;;16.30;6.70;;;;;;;0.07;96.48;96605.34;214983;1321;22585;-76
2021/11/29 04:00:12;;;;;;;16.00;6.20;;;;;;;0.05;96.45;96606.92;214949;1319;25344;-76
2021/11/29 04:05:15;;;;;;;22.20;7.20;;;;;;;0.04;96.75;96602.62;215359;1320;22608;-76
2021/11/29 04:10:17;;;;;;;14.30;6.10;;;;;;;0.01;96.67;96597.16;215088;1321;22680;-76
2021/11/29 04:15:20;;;;;;;13.80;5.30;;;;;;;-0.03;96.84;96595.61;215168;1321;22661;-76
2021/11/29 04:20:24;;;;;;;21.10;6.50;;;;;;;-0.08;96.85;96592.33;215131;1321;22692;-77
2021/11/29 04:25:33;;;;;;;16.70;6.10;;;;;;;-0.11;97.08;96597.23;214990;1319;24404;-77
2021/11/29 04:30:37;;;;;;;19.00;6.90;;;;;;;-0.11;97.13;96601.44;215159;1321;22514;-76
2021/11/29 04:35:39;;;;;;;17.20;6.90;;;;;;;-0.09;97.35;96608.75;214949;1321;25278;-76
2021/11/29 04:40:42;;;;;;;19.20;7.20;;;;;;;-0.04;97.57;96612.73;215196;1316;25391;-76
2021/11/29 04:45:44;;;;;;;17.50;6.60;;;;;;;0.00;97.41;96621.39;215312;1321;23787;-76
2021/11/29 04:50:47;;;;;;;19.10;6.90;;;;;;;0.03;97.20;96623.37;215221;1320;22540;-76
2021/11/29 04:55:49;;;;;;;19.90;6.50;;;;;;;0.05;97.26;96624.41;214946;1320;25424;-76
2021/11/29 05:00:52;;;;;;;18.50;6.90;;;;;;;0.05;97.11;96623.56;214838;1322;23104;-76
2021/11/29 05:05:54;;;;;;;16.20;6.60;;;;;;;0.07;97.04;96626.92;214890;1320;22576;-76
2021/11/29 05:11:02;;;;;;;18.30;7.20;;;;;;;0.06;97.36;96625.52;215543;1319;113273;-77
2021/11/29 05:16:18;;;;;;;23.60;6.80;;;;;;;0.05;96.95;96624.52;215288;1322;23006;-77
2021/11/29 05:21:21;;;;;;;21.00;6.70;;;;;;;0.03;96.95;96629.63;215398;1323;23340;-76
2021/11/29 05:26:30;;;;;;;22.40;5.90;;;;;;;0.04;97.11;96638.36;214993;1317;22654;-76
2021/11/29 05:31:33;;;;;;;12.90;5.30;;;;;;;0.04;97.38;96643.42;214937;1321;22649;-76
2021/11/29 05:36:35;;;;;;;17.90;7.60;;;;;;;0.02;97.23;96645.12;215159;1322;24158;-76
2021/11/29 05:41:37;;;;;;;18.40;6.10;;;;;;;0.03;97.39;96651.70;214875;1317;22607;-76
2021/11/29 05:46:39;;;;;;;20.20;6.70;;;;;;;0.04;97.50;96652.15;215133;1320;22643;-77
2021/11/29 05:51:44;;;;;;;21.30;6.20;;;;;;;0.01;97.24;96653.38;215140;1317;22688;-77
2021/11/29 05:56:46;;;;;;;23.60;6.20;;;;;;;-0.01;97.28;96659.14;215021;1322;24165;-77
2021/11/29 06:01:50;;;;;;;16.80;6.00;;;;;;;-0.00;97.43;96667.62;215036;1322;22717;-76
2021/11/29 06:06:52;;;;;;;20.10;6.60;;;;;;;0.02;97.52;96676.14;215072;1321;24283;-77
2021/11/29 06:11:54;;;;;;;12.50;5.50;;;;;;;0.03;97.27;96687.33;215100;1321;24256;-76
2021/11/29 06:16:56;;;;;;;19.00;7.30;;;;;;;0.03;97.18;96695.02;214974;1321;23443;-76
2021/11/29 06:21:58;;;;;;;17.80;6.00;;;;;;;0.03;97.26;96702.29;214840;1316;22539;-76
2021/11/29 06:27:00;;;;;;;18.00;6.40;;;;;;;0.02;97.44;96708.98;215057;1316;22748;-77
2021/11/29 06:32:03;;;;;;;20.80;6.80;;;;;;;0.01;97.23;96717.69;214819;1321;22566;-76
2021/11/29 06:37:09;;;;;;;19.50;6.90;;;;;;;0.02;97.22;96727.15;215154;1317;22651;-77
2021/11/29 06:42:13;;;;;;;21.00;6.70;;;;;;;-0.00;97.35;96731.48;215395;1322;22589;-76
2021/11/29 06:47:15;;;;;;;19.00;5.70;;;;;;;-0.05;97.14;96746.66;215940;1316;22586;-77
2021/11/29 06:52:17;;;;;;;17.00;6.20;;;;;;;-0.05;97.32;96746.85;215773;1320;23598;-76
2021/11/29 06:57:24;;;;;;;17.20;6.90;;;;;;;-0.03;97.59;96758.49;216449;1313;22763;-77
2021/11/29 07:02:28;;;;;;;13.30;6.10;;;;;;;0.01;97.57;96758.42;216205;1313;22601;-79
2021/11/29 07:07:37;;;;;;;13.00;5.90;;;;;;;0.05;97.45;96772.41;217377;1313;22576;-80
2021/11/29 07:12:41;;;;;;;16.10;6.30;;;;;;;0.06;97.20;96775.21;216830;1313;24660;-80
2021/11/29 07:17:43;;;;;;;15.50;6.30;;;;;;;0.06;97.51;96777.10;216813;1316;22617;-79
2021/11/29 07:22:46;;;;;;;15.60;7.20;;;;;;;0.08;97.18;96778.88;216846;1319;24277;-80
2021/11/29 07:27:50;;;;;;;12.70;6.30;;;;;;;0.08;97.31;96775.88;216996;1315;23822;-79
2021/11/29 07:32:54;;;;;;;11.80;5.40;;;;;;;0.07;97.18;96773.25;216802;1313;22735;-79
2021/11/29 07:37:58;;;;;;;12.60;5.60;;;;;;;0.05;97.18;96771.20;216997;1314;22683;-79
2021/11/29 07:43:05;;;;;;;13.00;6.30;;;;;;;0.05;97.10;96771.26;216531;1313;22577;-79
2021/11/29 07:48:07;;;;;;;10.10;4.90;;;;;;;0.06;97.36;96768.99;216298;1317;24294;-78
2021/11/29 07:53:22;;;;;;;15.80;5.80;;;;;;;0.04;97.04;96775.73;216327;1313;22641;-78
2021/11/29 07:58:35;;;;;;;12.90;6.10;;;;;;;0.06;97.32;96781.73;216473;1313;23983;-78
2021/11/29 08:03:40;;;;;;;15.10;6.20;;;;;;;0.03;97.10;96775.48;215895;1313;22572;-76
2021/11/29 08:08:43;;;;;;;17.60;8.10;;;;;;;0.04;96.95;96783.16;215590;1313;23832;-76
2021/11/29 08:13:58;;;;;;;13.00;6.30;;;;;;;0.05;97.07;96783.16;215327;1313;22676;-76
2021/11/29 08:19:18;;;;;;;15.50;6.00;;;;;;;0.04;96.80;96781.84;215612;1316;25365;-75
2021/11/29 08:24:20;;;;;;;17.70;6.90;;;;;;;0.05;96.90;96789.64;215817;1316;25966;-77
2021/11/29 08:29:22;;;;;;;14.50;6.70;;;;;;;0.03;96.94;96794.91;216344;1318;25338;-76
2021/11/29 08:34:24;;;;;;;15.90;6.20;;;;;;;0.04;97.06;96799.76;215489;1319;23295;-77
2021/11/29 08:39:26;;;;;;;16.80;7.10;;;;;;;0.02;96.93;96804.02;215408;1315;22527;-76
2021/11/29 08:44:28;;;;;;;16.40;5.80;;;;;;;0.02;97.00;96804.71;215793;1314;23029;-77
2021/11/29 08:49:31;;;;;;;15.20;6.50;;;;;;;0.04;97.27;96816.17;215792;1316;23263;-76
2021/11/29 08:54:33;;;;;;;17.40;6.80;;;;;;;0.07;97.37;96822.27;215895;1316;22739;-77
2021/11/29 08:59:36;;;;;;;18.80;7.20;;;;;;;0.12;97.12;96828.21;215671;1313;22585;-77
2021/11/29 09:04:38;;;;;;;19.30;8.20;;;;;;;0.19;97.40;96828.77;215508;1313;25313;-77
2021/11/29 09:09:40;;;;;;;18.40;6.40;;;;;;;0.22;97.12;96832.61;216766;1315;24279;-78
2021/11/29 09:14:43;;;;;;;16.00;5.50;;;;;;;0.21;96.70;96835.61;215666;1313;22622;-77
2021/11/29 09:19:48;;;;;;;17.90;8.00;;;;;;;0.21;96.58;96831.40;215846;1313;22527;-76
2021/11/29 09:24:50;;;;;;;15.30;7.10;;;;;;;0.20;96.65;96834.76;215739;1315;22673;-78
2021/11/29 09:29:52;;;;;;;16.80;6.70;;;;;;;0.22;96.72;96832.66;215951;1313;22572;-78
2021/11/29 09:34:54;;;;;;;18.40;7.00;;;;;;;0.27;96.68;96834.59;216284;1316;22646;-79
2021/11/29 09:39:57;;;;;;;14.40;5.90;;;;;;;0.31;96.41;96834.16;216560;1315;25405;-78
2021/11/29 09:44:59;;;;;;;16.30;7.00;;;;;;;0.38;96.63;96834.96;217055;1313;22716;-80
2021/11/29 09:50:04;;;;;;;14.40;6.10;;;;;;;0.43;96.46;96833.32;216544;1313;22600;-79
2021/11/29 09:55:09;;;;;;;12.00;6.40;;;;;;;0.50;96.20;96833.50;216863;1313;22613;-78
2021/11/29 10:00:19;;;;;;;13.20;6.00;;;;;;;0.50;96.13;96829.59;216557;1313;24260;-78
2021/11/29 10:05:24;;;;;;;14.00;6.20;;;;;;;0.51;96.12;96830.69;216257;1313;22849;-79
2021/11/29 10:10:30;;;;;;;9.50;4.50;;;;;;;0.49;96.03;96834.09;216364;1313;22728;-79
2021/11/29 10:15:40;;;;;;;13.10;5.50;;;;;;;0.44;95.61;96836.59;216558;1313;22611;-79
2021/11/29 10:20:45;;;;;;;;;;;;;;;0.46;95.99;96844.95;216158;1315;22693;-79
2021/11/29 10:25:47;;;;;;;13.40;5.80;;;;;;;0.44;95.88;96849.86;217103;1313;22677;-80
2021/11/29 10:31:15;;;;;;;15.40;5.80;;;;;;;0.40;95.57;96847.88;217375;1315;22836;-79
2021/11/29 10:36:19;;;;;;;14.50;5.80;;;;;;;0.40;95.52;96851.87;216819;1313;22764;-79
2021/11/29 10:41:25;;;;;;;15.20;6.80;;;;;;;0.39;95.62;96855.51;217160;1313;25335;-79
2021/11/29 10:46:37;;;;;;;12.20;5.70;;;;;;;0.35;95.19;96853.95;217353;1313;25388;-80
2021/11/29 10:51:43;;;;;;;13.60;6.70;;;;;;;0.32;95.49;96864.11;217257;1313;22633;-79
2021/11/29 10:56:47;;;;;;;14.30;6.60;;;;;;;0.31;95.59;96866.72;216526;1316;22627;-79
2021/11/29 11:01:53;;;;;;;21.10;6.80;;;;;;;0.26;95.39;96872.30;217250;1313;24388;-79
2021/11/29 11:06:59;;;;;;;17.60;5.80;;;;;;;0.21;95.48;96874.58;217334;1318;23309;-80
2021/11/29 11:12:09;;;;;;;14.00;6.30;;;;;;;0.21;95.39;96879.11;216706;1319;23700;-79
2021/11/29 11:17:13;;;;;;;13.80;6.50;;;;;;;0.21;95.42;96884.33;216455;1315;22626;-79
2021/11/29 11:22:21;;;;;;;15.50;6.10;;;;;;;0.19;95.25;96886.70;217027;1313;22579;-79
2021/11/29 11:27:28;;;;;;;14.20;6.10;;;;;;;0.18;95.38;96895.13;215891;1316;22527;-78
2021/11/29 11:32:42;;;;;;;17.20;6.20;;;;;;;0.16;95.49;96893.60;215863;1316;23247;-79
2021/11/29 11:37:47;;;;;;;15.80;6.10;;;;;;;0.18;95.30;96895.71;217157;1315;22615;-79
2021/11/29 11:42:51;;;;;;;16.50;6.50;;;;;;;0.15;95.53;96902.41;216815;1316;23942;-79
2021/11/29 11:47:55;;;;;;;15.00;6.60;;;;;;;0.14;95.21;96905.15;216719;1315;22628;-79
2021/11/29 11:52:59;;;;;;;13.60;5.60;;;;;;;0.18;95.73;96911.89;217065;1317;23764;-79
2021/11/29 11:58:24;;;;;;;15.60;6.20;;;;;;;0.21;95.52;96917.52;216675;1313;23111;-80
2021/11/29 12:03:35;;;;;;;12.80;6.30;;;;;;;0.21;95.24;96925.20;215732;1316;23573;-79
2021/11/29 12:08:50;;;;;;;14.70;6.00;;;;;;;0.21;95.46;96920.83;215639;1321;22786;-79
2021/11/29 12:14:22;;;;;;;14.50;6.00;;;;;;;0.26;95.15;96926.14;215944;1313;22679;-78
2021/11/29 12:19:24;;;;;;;15.30;7.10;;;;;;;0.28;95.22;96933.09;216245;1313;24312;-77
2021/11/29 12:24:43;;;;;;;13.80;6.00;;;;;;;0.26;95.21;96939.15;215908;1320;22608;-77
2021/11/29 12:30:07;;;;;;;17.10;6.40;;;;;;;0.23;95.00;96949.79;215690;1315;22638;-76
2021/11/29 12:35:10;;;;;;;9.80;4.90;;;;;;;0.23;94.74;96950.00;215751;1315;23035;-77
2021/11/29 12:40:17;;;;;;;7.70;5.00;;;;;;;0.25;94.61;96949.06;215445;1320;22527;-77
2021/11/29 12:45:25;;;;;;;9.20;4.60;;;;;;;0.24;94.73;96956.95;215604;1316;23093;-77
2021/11/29 12:50:54;;;;;;;13.00;4.60;;;;;;;0.21;94.43;96961.80;214989;1324;25373;-77
2021/11/29 12:56:17;;;;;;;11.30;5.40;;;;;;;0.22;94.41;96964.22;215939;1313;22590;-77
2021/11/29 13:01:19;;;;;;;12.00;4.80;;;;;;;0.24;94.47;96968.65;215769;1313;24737;-77
2021/11/29 13:06:31;;;;;;;8.90;5.10;;;;;;;0.23;94.35;96974.29;215863;1319;22635;-78
2021/11/29 13:11:49;;;;;;;15.60;5.50;;;;;;;0.22;94.42;96978.45;215226;1320;675005;-78
2021/11/29 13:16:56;;;;;;;13.70;6.60;;;;;;;0.23;94.75;96986.72;215778;1320;22569;-78
2021/11/29 13:22:14;;;;;;;14.40;5.50;;;;;;;0.22;94.33;96989.09;215254;1320;22837;-76
2021/11/29 13:27:28;;;;;;;11.50;5.70;;;;;;;0.16;94.03;96996.20;215549;1320;22523;-78
2021/11/29 13:32:33;;;;;;;11.50;5.90;;;;;;;0.15;94.19;97001.64;215121;1319;25973;-78
2021/11/29 13:37:41;;;;;;;14.80;5.70;;;;;;;0.16;94.00;97011.64;216084;1319;22716;-78
2021/11/29 13:42:44;;;;;;;15.20;6.60;;;;;;;0.20;94.27;97008.69;216151;1313;22605;-78
2021/11/29 13:48:09;;;;;;;16.40;7.10;;;;;;;0.22;94.20;97009.95;216473;1313;22603;-79
2021/11/29 13:53:15;;;;;;;12.90;5.10;;;;;;;0.21;94.08;97018.05;215975;1320;22513;-77
2021/11/29 13:58:20;;;;;;;12.00;5.20;;;;;;;0.16;93.99;97024.91;216069;1318;22756;-77
2021/11/29 14:03:28;;;;;;;17.20;7.00;;;;;;;0.07;93.76;97024.54;215668;1316;23267;-77
2021/11/29 14:08:33;;;;;;;11.60;5.20;;;;;;;0.02;93.74;97039.33;215514;1313;22637;-78
2021/11/29 14:13:53;;;;;;;15.80;6.10;;;;;;;0.01;93.53;97044.27;215889;1313;22709;-78
2021/11/29 14:19:01;;;;;;;;;;;;;;;0.01;93.57;97052.27;216142;1313;22607;-78
2021/11/29 14:24:35;;;;;;;11.70;4.50;;;;;;;-0.02;93.37;97065.39;215731;1315;22585;-78
2021/11/29 14:29:40;;;;;;;12.10;5.20;;;;;;;0.00;93.23;97071.72;216013;1318;23672;-78
2021/11/29 14:34:44;;;;;;;12.50;5.00;;;;;;;0.05;93.19;97076.19;216136;1319;22666;-78
2021/11/29 14:39:59;;;;;;;13.70;4.90;;;;;;;0.09;92.88;97079.67;216538;1317;22641;-78
2021/11/29 14:45:10;;;;;;;10.20;4.70;;;;;;;0.12;92.51;97083.89;216196;1321;24429;-78
2021/11/29 14:50:30;;;;;;;13.40;5.10;;;;;;;0.14;92.33;97094.73;216111;1318;23860;-77
2021/11/29 14:55:51;;;;;;;11.00;4.50;;;;;;;0.18;92.39;97098.00;215767;1317;22509;-77
2021/11/29 15:00:59;;;;;;;14.00;6.80;;;;;;;0.20;92.28;97108.38;216496;1313;22850;-77
2021/11/29 15:06:14;;;;;;;17.20;7.50;;;;;;;0.23;92.20;97117.98;215164;1320;22573;-76
2021/11/29 15:11:17;;;;;;;13.70;5.30;;;;;;;0.25;92.31;97120.10;215007;1320;25210;-77
2021/11/29 15:16:26;;;;;;;15.40;6.80;;;;;;;0.27;92.22;97128.36;215020;1321;22692;-76
2021/11/29 15:21:33;;;;;;;8.00;5.00;;;;;;;0.27;92.14;97132.36;215119;1322;22720;-77
2021/11/29 15:26:38;;;;;;;14.40;5.50;;;;;;;0.26;91.86;97129.37;215357;1317;22642;-76
2021/11/29 15:31:44;;;;;;;13.10;5.70;;;;;;;0.23;91.99;97132.73;215477;1320;22605;-75
2021/11/29 15:36:50;;;;;;;14.30;5.90;;;;;;;0.23;92.11;97141.31;215057;1320;25405;-77
2021/11/29 15:41:52;;;;;;;17.50;7.00;;;;;;;0.27;92.07;97142.85;215223;1317;22633;-77
2021/11/29 15:47:06;;;;;;;16.00;6.40;;;;;;;0.34;92.23;97159.03;215155;1322;22633;-77
2021/11/29 15:52:21;;;;;;;22.50;8.30;;;;;;;0.42;92.36;97165.31;215376;1322;25390;-76
2021/11/29 15:57:41;;;;;;;23.50;7.70;;;;;;;0.45;92.09;97165.91;215078;1320;24355;-76
2021/11/29 16:02:44;;;;;;;21.30;8.30;;;;;;;0.46;92.28;97174.54;215149;1319;26112;-77
2021/11/29 16:07:50;;;;;;;21.90;8.10;;;;;;;0.48;92.01;97183.29;215323;1317;23221;-77
2021/11/29 16:13:12;;;;;;;19.60;7.20;;;;;;;0.51;92.08;97193.21;214970;1316;22994;-77
2021/11/29 16:18:15;;;;;;;19.40;7.00;;;;;;;0.55;92.04;97195.31;214794;1322;22699;-76
2021/11/29 16:23:24;;;;;;;24.50;8.50;;;;;;;0.54;91.83;97198.90;215365;1318;23570;-77
2021/11/29 16:28:27;;;;;;;23.60;8.80;;;;;;;0.56;91.86;97203.12;215205;1320;23020;-77
2021/11/29 16:33:30;;;;;;;19.70;9.00;;;;;;;0.57;91.83;97211.49;215029;1320;22512;-76
2021/11/29 16:38:35;;;;;;;24.40;9.80;;;;;;;0.59;91.99;97209.13;214942;1320;23800;-77
2021/11/29 16:43:38;;;;;;;26.10;10.90;;;;;;;0.62;91.92;97219.46;215199;1320;22630;-77
2021/11/29 16:48:41;;;;;;;27.80;10.50;;;;;;;0.62;91.67;97222.15;215231;1317;22776;-76
2021/11/29 16:53:45;;;;;;;24.80;10.70;;;;;;;0.60;91.61;97231.38;215141;1316;24244;-76
2021/11/29 16:58:47;;;;;;;41.20;12.30;;;;;;;0.61;91.61;97233.11;215143;1319;22642;-77
2021/11/29 17:03:49;;;;;;;27.90;10.70;;;;;;;0.64;91.78;97236.91;215222;1316;22776;-77
2021/11/29 17:08:51;;;;;;;38.70;13.00;;;;;;;0.68;91.86;97242.35;215167;1321;23572;-77
2021/11/29 17:13:53;;;;;;;34.10;10.50;;;;;;;0.69;91.61;97251.57;215114;1321;22644;-77
2021/11/29 17:18:55;;;;;;;33.10;11.70;;;;;;;0.66;91.35;97254.05;215383;1320;22624;-76
2021/11/29 17:23:57;;;;;;;31.90;12.00;;;;;;;0.66;91.42;97257.85;215277;1321;24323;-77
2021/11/29 17:29:00;;;;;;;27.60;9.80;;;;;;;0.67;91.43;97261.95;215094;1319;23056;-77
2021/11/29 17:34:07;;;;;;;35.50;13.50;;;;;;;0.67;91.14;97264.90;215198;1317;22524;-78
2021/11/29 17:39:10;;;;;;;32.80;12.70;;;;;;;0.67;91.32;97276.77;215123;1317;25558;-77
2021/11/29 17:44:25;;;;;;;29.40;11.90;;;;;;;0.65;91.01;97277.66;215383;1322;26033;-77
2021/11/29 17:49:48;;;;;;;21.70;8.90;;;;;;;0.59;90.74;97285.70;215138;1319;24263;-76
2021/11/29 17:54:51;;;;;;;30.80;12.20;;;;;;;0.62;91.14;97292.63;215034;1320;22616;-76
2021/11/29 17:59:53;;;;;;;27.50;10.30;;;;;;;0.63;91.20;97294.56;215007;1322;25420;-76
2021/11/29 18:04:55;;;;;;;22.40;9.50;;;;;;;0.56;90.72;97298.51;215139;1319;23825;-76
2021/11/29 18:15:10;;;;;;;25.80;10.20;;;;;;;0.58;91.03;97295.25;215164;1319;22530;-76
2021/11/29 18:20:14;;;;;;;22.70;9.20;;;;;;;0.53;90.59;97298.03;215078;1318;22607;-76
2021/11/29 18:25:17;;;;;;;22.50;8.60;;;;;;;0.46;90.61;97294.68;214973;1322;22691;-76
2021/11/29 18:30:24;;;;;;;21.30;8.60;;;;;;;0.46;90.78;97298.90;214887;1317;24281;-76
2021/11/29 18:35:27;;;;;;;19.10;8.60;;;;;;;0.50;90.90;97299.17;214577;1316;24258;-77
2021/11/29 18:40:42;;;;;;;22.40;9.30;;;;;;;0.42;90.29;97305.80;215272;1319;23039;-76
2021/11/29 18:45:45;;;;;;;23.00;9.20;;;;;;;0.35;90.74;97308.40;215177;1321;24279;-76
2021/11/29 18:50:48;;;;;;;26.90;9.10;;;;;;;0.37;90.58;97315.15;215329;1317;24320;-78
2021/11/29 18:55:54;;;;;;;27.40;9.60;;;;;;;0.32;90.50;97315.25;215024;1320;25242;-77
2021/11/29 19:00:59;;;;;;;16.60;7.80;;;;;;;0.35;90.79;97310.77;215075;1321;22708;-77
2021/11/29 19:06:05;;;;;;;28.30;9.80;;;;;;;0.31;90.85;97315.77;215164;1321;22632;-77
2021/11/29 19:11:08;;;;;;;24.80;9.90;;;;;;;0.30;90.62;97322.02;215174;1322;22605;-77
2021/11/29 19:16:10;;;;;;;29.00;10.20;;;;;;;0.27;90.44;97330.02;215073;1320;22606;-77
2021/11/29 19:21:15;;;;;;;21.40;7.90;;;;;;;0.29;90.71;97335.61;214890;1321;23748;-77
2021/11/29 19:26:17;;;;;;;21.90;8.90;;;;;;;0.33;90.94;97335.95;215061;1320;24243;-77
2021/11/29 19:31:19;;;;;;;26.00;10.10;;;;;;;0.35;90.73;97338.17;215115;1322;22596;-77
2021/11/29 19:36:26;;;;;;;29.50;10.20;;;;;;;0.37;90.62;97342.65;215144;1321;22967;-77
2021/11/29 19:46:34;;;;;;;25.60;9.80;;;;;;;0.41;90.55;97342.56;215111;1322;22518;-77
2021/11/29 19:51:37;;;;;;;28.60;9.60;;;;;;;0.41;90.81;97344.89;214856;1316;23029;-77
2021/11/29 19:56:41;;;;;;;21.40;7.90;;;;;;;0.43;90.42;97340.62;215249;1322;22607;-77
2021/11/29 20:01:44;;;;;;;24.90;9.10;;;;;;;0.39;90.35;97345.81;215029;1320;25510;-77
2021/11/29 20:06:47;;;;;;;22.50;8.90;;;;;;;0.35;90.16;97351.65;215172;1321;25239;-77
2021/11/29 20:11:50;;;;;;;23.10;9.50;;;;;;;0.33;90.26;97350.11;215118;1322;22732;-76
2021/11/29 20:16:57;;;;;;;24.30;9.40;;;;;;;0.29;89.80;97355.58;215243;1321;22634;-77
2021/11/29 20:22:04;;;;;;;24.40;9.50;;;;;;;0.28;89.94;97362.11;214925;1320;23268;-77
2021/11/29 20:27:09;;;;;;;25.60;9.70;;;;;;;0.29;89.86;97367.33;214915;1319;22786;-78
2021/11/29 20:32:12;;;;;;;26.10;10.10;;;;;;;0.26;89.54;97366.90;214814;1322;22863;-77
2021/11/29 20:37:14;;;;;;;25.60;10.40;;;;;;;0.25;89.62;97370.15;214893;1322;25371;-77
2021/11/29 20:42:17;;;;;;;23.50;9.70;;;;;;;0.23;89.58;97366.77;215035;1322;22498;-78
2021/11/29 20:47:19;;;;;;;26.20;11.90;;;;;;;0.17;89.18;97368.58;215100;1321;24320;-77
2021/11/29 20:52:26;;;;;;;23.30;9.50;;;;;;;0.07;88.95;97372.78;215325;1317;22526;-77
2021/11/29 20:57:28;;;;;;;24.20;10.30;;;;;;;0.06;89.67;97384.27;214962;1318;23987;-77
2021/11/29 21:02:31;;;;;;;28.90;10.40;;;;;;;0.10;89.50;97387.18;215314;1321;24250;-77
2021/11/29 21:07:45;;;;;;;32.10;11.90;;;;;;;0.15;89.84;97388.16;215729;1321;24217;-77
2021/11/29 21:13:08;;;;;;;24.00;9.00;;;;;;;0.26;90.06;97394.65;208272;1317;10346409;-77
2021/11/29 21:18:11;;;;;;;35.00;11.80;;;;;;;0.32;89.72;97397.54;215718;1321;22626;-77
2021/11/29 21:23:13;;;;;;;28.00;9.80;;;;;;;0.37;89.64;97404.52;215263;1319;22529;-77
2021/11/29 21:28:16;;;;;;;26.50;9.30;;;;;;;0.40;89.49;97399.05;215462;1322;22714;-77
2021/11/29 21:33:19;;;;;;;25.10;9.50;;;;;;;0.44;89.38;97400.91;215386;1321;22725;-77
2021/11/29 21:38:24;;;;;;;29.10;9.90;;;;;;;0.49;89.53;97403.00;215752;1319;22644;-77
2021/11/29 21:43:26;;;;;;;23.00;8.80;;;;;;;0.54;89.40;97409.04;215600;1321;23292;-77
2021/11/29 21:48:28;;;;;;;22.70;8.80;;;;;;;0.55;89.17;97409.56;215059;1320;22622;-77
2021/11/29 21:53:31;;;;;;;25.60;8.80;;;;;;;0.55;89.23;97412.98;214921;1316;24184;-77
2021/11/29 21:58:33;;;;;;;27.40;9.00;;;;;;;0.57;89.04;97419.31;215007;1320;22727;-77
2021/11/29 22:03:36;;;;;;;30.20;9.20;;;;;;;0.59;88.88;97424.28;214635;1322;23716;-77
2021/11/29 22:08:38;;;;;;;29.30;10.00;;;;;;;0.63;89.05;97423.55;214767;1322;22645;-77
2021/11/29 22:13:40;;;;;;;28.00;9.10;;;;;;;0.63;88.49;97416.81;214921;1316;22603;-76
2021/11/29 22:18:42;;;;;;;28.70;8.80;;;;;;;0.63;88.50;97421.14;215163;1320;22612;-77
2021/11/29 22:23:44;;;;;;;32.60;9.70;;;;;;;0.63;88.34;97423.73;214944;1321;22500;-77
2021/11/29 22:28:46;;;;;;;28.20;9.20;;;;;;;0.60;88.53;97426.44;214453;1319;23153;-77
2021/11/29 22:33:48;;;;;;;25.00;8.10;;;;;;;0.59;88.80;97425.34;214917;1322;24362;-77
2021/11/29 22:38:51;;;;;;;29.60;9.20;;;;;;;0.58;88.52;97428.17;214859;1320;22635;-78
2021/11/29 22:43:54;;;;;;;28.40;9.60;;;;;;;0.57;88.81;97430.23;214921;1320;23029;-77
2021/11/29 22:48:57;;;;;;;25.20;8.40;;;;;;;0.53;88.88;97431.89;214955;1321;22559;-77
2021/11/29 22:54:05;;;;;;;25.30;8.50;;;;;;;0.46;88.70;97438.08;214851;1322;22642;-77
2021/11/29 22:59:40;;;;;;;21.80;9.30;;;;;;;0.37;88.84;97442.19;214642;1322;25406;-77
2021/11/29 23:04:43;;;;;;;27.50;8.80;;;;;;;0.31;89.28;97443.88;215181;1322;24279;-77
2021/11/29 23:09:45;;;;;;;19.50;8.50;;;;;;;0.29;89.63;97447.03;214786;1322;22570;-77
2021/11/29 23:14:48;;;;;;;24.50;8.90;;;;;;;0.29;89.77;97448.87;214762;1316;22564;-76
2021/11/29 23:19:50;;;;;;;27.40;9.40;;;;;;;0.28;89.57;97453.04;214911;1320;24194;-76
2021/11/29 23:24:52;;;;;;;22.40;9.60;;;;;;;0.27;90.17;97456.09;214742;1316;25407;-76
2021/11/29 23:29:54;;;;;;;27.20;9.60;;;;;;;0.26;90.02;97461.93;214821;1322;22598;-77
2021/11/29 23:34:56;;;;;;;27.90;10.50;;;;;;;0.28;89.95;97461.98;214915;1321;24359;-77
2021/11/29 23:39:59;;;;;;;29.80;10.60;;;;;;;0.28;90.14;97474.95;214841;1319;22625;-77
2021/11/29 23:45:01;;;;;;;25.30;10.00;;;;;;;0.31;90.27;97479.14;214548;1321;22609;-76
2021/11/29 23:50:05;;;;;;;32.30;12.10;;;;;;;0.35;90.30;97485.95;214142;1322;25366;-76
2021/11/29 23:55:27;;;;;;;35.60;10.80;;;;;;;0.40;90.56;97493.42;214434;1322;24346;-76
